Time;durP1;ratioP1;P1;durP2;ratioP2;P2;SDS_P1;SDS_P2;PMS_P1;PMS_P2;Temp;Humidity;BMP_temperature;BMP_pressure;BME280_temperature;BME280_humidity;BME280_pressure;Samples;Min_cycle;Max_cycle;Signal;HPM_P1;HPM_P2
2021/05/17 00:00:34;;;;;;;17.98;3.55;;;;;;;18.42;65.22;98640.09;1760651;81;21192;-83
2021/05/17 00:03:40;;;;;;;12.95;4.03;;;;;;;18.45;65.13;98674.17;1754416;81;21286;-83
2021/05/17 00:06:45;;;;;;;22.30;4.58;;;;;;;18.48;65.11;98694.38;1746336;82;21270;-83
2021/05/17 00:09:51;;;;;;;21.05;4.00;;;;;;;18.52;65.09;98714.90;1754510;82;21267;-83
2021/05/17 00:12:57;;;;;;;13.75;4.00;;;;;;;18.56;65.16;98716.87;1753019;81;21212;-83
2021/05/17 00:16:03;;;;;;;14.93;3.67;;;;;;;18.61;65.07;98721.05;1754747;82;22105;-83
2021/05/17 00:19:07;;;;;;;15.32;3.62;;;;;;;18.67;64.98;98725.23;1754564;81;21913;-83
2021/05/17 00:22:15;;;;;;;14.50;3.72;;;;;;;18.72;64.97;98736.37;1741733;82;21283;-83
2021/05/17 00:25:23;;;;;;;16.60;3.77;;;;;;;18.77;64.86;98763.58;1737010;82;21173;-83
2021/05/17 00:28:30;;;;;;;12.93;3.92;;;;;;;18.82;64.80;98779.36;1758957;81;21177;-83
2021/05/17 00:31:35;;;;;;;16.12;3.35;;;;;;;18.83;65.08;98804.60;1754490;82;21311;-83
2021/05/17 00:34:39;;;;;;;13.15;4.00;;;;;;;18.83;66.19;98829.53;1754555;81;21839;-81
2021/05/17 00:37:46;;;;;;;21.07;3.55;;;;;;;18.76;67.83;98821.98;1754581;82;21295;-80
2021/05/17 00:40:53;;;;;;;19.23;4.85;;;;;;;18.59;69.78;98793.88;1754588;82;21303;-80
2021/05/17 00:44:01;;;;;;;16.90;5.28;;;;;;;18.42;71.05;98776.56;1754602;82;21220;-80
2021/05/17 00:47:05;;;;;;;21.07;4.05;;;;;;;18.30;72.36;98721.93;1741347;82;21308;-80
2021/05/17 00:50:11;;;;;;;18.55;4.70;;;;;;;18.20;73.39;98698.33;1741253;82;21296;-80
2021/05/17 00:53:15;;;;;;;20.77;4.75;;;;;;;18.03;74.70;98724.22;1741357;82;21716;-80
2021/05/17 00:56:22;;;;;;;24.55;3.98;;;;;;;17.87;75.71;98701.66;1739908;82;21216;-80
2021/05/17 00:59:27;;;;;;;12.73;4.15;;;;;;;17.59;76.27;98669.01;1741281;82;21323;-80
2021/05/17 01:02:32;;;;;;;16.15;4.37;;;;;;;17.19;77.35;98674.13;1741396;82;21340;-80
2021/05/17 01:05:39;;;;;;;13.60;4.30;;;;;;;16.93;78.69;98660.55;1741176;82;21189;-81
2021/05/17 01:08:52;;;;;;;10.23;4.08;;;;;;;16.75;79.79;98655.66;1741344;82;21323;-81
2021/05/17 01:12:05;;;;;;;14.83;5.30;;;;;;;16.66;80.66;98678.42;1741197;81;21715;-81
2021/05/17 01:15:13;;;;;;;12.28;4.72;;;;;;;16.56;81.30;98666.66;1741261;82;21695;-81
2021/05/17 01:18:18;;;;;;;13.20;4.55;;;;;;;16.50;81.73;98622.16;1741282;82;21316;-81
2021/05/17 01:21:31;;;;;;;10.28;3.60;;;;;;;16.41;82.22;98633.34;1741133;81;21344;-81
2021/05/17 01:24:34;;;;;;;16.25;3.67;;;;;;;16.30;82.93;98650.30;1741294;82;21311;-81
2021/05/17 01:27:41;;;;;;;9.70;3.83;;;;;;;16.19;83.30;98632.78;1741319;82;21322;-82
2021/05/17 01:30:47;;;;;;;9.78;3.67;;;;;;;16.15;83.83;98632.16;1741332;82;21264;-82
2021/05/17 01:33:56;;;;;;;8.97;3.50;;;;;;;16.10;83.94;98579.97;1741502;82;21299;-81
2021/05/17 01:37:03;;;;;;;16.52;3.90;;;;;;;16.08;83.98;98584.88;1741317;82;21334;-82
2021/05/17 01:40:08;;;;;;;10.78;3.52;;;;;;;16.08;84.01;98632.31;1741299;82;21338;-82
2021/05/17 01:43:15;;;;;;;12.47;3.80;;;;;;;16.10;83.48;98602.58;1741279;82;21858;-82
2021/05/17 01:46:27;;;;;;;16.10;4.10;;;;;;;16.15;82.37;98561.83;1741304;82;21374;-82
2021/05/17 01:49:36;;;;;;;15.80;4.62;;;;;;;16.25;81.40;98600.58;1741315;82;21311;-82
2021/05/17 01:52:42;;;;;;;13.98;3.60;;;;;;;16.36;80.73;98581.69;1741295;82;21224;-82
2021/05/17 01:55:48;;;;;;;20.27;4.10;;;;;;;16.44;80.43;98611.59;1741281;82;21146;-82
2021/05/17 01:58:56;;;;;;;12.50;3.37;;;;;;;16.51;80.53;98624.65;1740242;82;21311;-82
2021/05/17 02:02:02;;;;;;;12.47;3.58;;;;;;;16.57;80.62;98631.92;1739993;82;21319;-82
2021/05/17 02:05:07;;;;;;;9.05;3.60;;;;;;;16.59;80.75;98632.49;1741365;82;21264;-82
2021/05/17 02:08:12;;;;;;;13.88;4.03;;;;;;;16.56;81.16;98616.47;1741339;82;21311;-82
2021/05/17 02:11:25;;;;;;;20.02;3.85;;;;;;;16.48;81.45;98605.03;1741305;82;21181;-81
2021/05/17 02:14:35;;;;;;;9.10;3.83;;;;;;;16.39;81.97;98612.91;1741487;82;21284;-82
2021/05/17 02:17:41;;;;;;;15.58;3.77;;;;;;;16.28;82.81;98589.05;1741362;82;21332;-82
2021/05/17 02:20:48;;;;;;;9.43;3.75;;;;;;;16.17;83.54;98596.88;1741408;81;21296;-82
2021/05/17 02:23:54;;;;;;;16.60;3.75;;;;;;;16.10;84.18;98621.34;1741343;82;21308;-82
2021/05/17 02:27:00;;;;;;;15.15;4.33;;;;;;;16.08;84.40;98644.73;1731251;82;21273;-82
2021/05/17 02:30:05;;;;;;;12.58;3.83;;;;;;;16.08;84.65;98671.76;1741412;82;21271;-82
2021/05/17 02:33:12;;;;;;;11.57;3.83;;;;;;;16.08;84.93;98660.73;1741335;82;21845;-82
2021/05/17 02:36:19;;;;;;;13.22;3.70;;;;;;;16.10;84.89;98647.54;1741323;81;21186;-82
2021/05/17 02:39:24;;;;;;;11.85;4.20;;;;;;;16.13;85.04;98641.22;1741233;82;21177;-82
2021/05/17 02:42:30;;;;;;;12.33;4.60;;;;;;;16.15;85.17;98630.23;1741233;82;21861;-82
2021/05/17 02:45:34;;;;;;;14.33;4.90;;;;;;;16.19;85.15;98620.91;1741436;82;22422;-82
2021/05/17 02:48:41;;;;;;;17.23;4.40;;;;;;;16.22;84.89;98623.14;1740665;81;21283;-82
2021/05/17 02:51:46;;;;;;;12.03;4.40;;;;;;;16.22;84.89;98612.11;1740833;82;21201;-82
2021/05/17 02:54:52;;;;;;;17.57;4.65;;;;;;;16.28;84.95;98612.50;1741360;82;21170;-82
2021/05/17 02:58:02;;;;;;;12.55;4.60;;;;;;;16.34;84.64;98581.12;1741375;82;21323;-82
2021/05/17 03:01:14;;;;;;;19.75;4.92;;;;;;;16.39;84.50;98568.77;1751892;81;21224;-82
2021/05/17 03:04:25;;;;;;;16.05;4.65;;;;;;;16.39;84.56;98564.62;1741348;82;21330;-82
2021/05/17 03:07:31;;;;;;;21.62;4.70;;;;;;;16.38;84.29;98539.52;1741041;81;21298;-82
2021/05/17 03:10:37;;;;;;;17.17;4.78;;;;;;;16.41;84.35;98511.38;1747691;81;21625;-81
2021/05/17 03:13:43;;;;;;;12.90;4.35;;;;;;;16.44;84.27;98539.86;1764869;81;21795;-81
2021/05/17 03:16:53;;;;;;;20.40;5.05;;;;;;;16.44;84.55;98577.11;1734631;81;21241;-81
2021/05/17 03:19:59;;;;;;;;;;;;;;;16.45;84.81;98606.36;1740108;81;21327;-81
2021/05/17 03:23:04;;;;;;;16.07;4.40;;;;;;;16.48;84.74;98625.18;1749234;81;20577;-81
2021/05/17 03:26:09;;;;;;;21.97;4.62;;;;;;;16.53;84.52;98616.97;1750112;81;21319;-81
2021/05/17 03:29:15;;;;;;;13.72;3.85;;;;;;;16.60;84.47;98585.85;1764666;81;21177;-81
2021/05/17 03:32:22;;;;;;;14.80;5.95;;;;;;;16.70;84.54;98560.84;1685929;85;21262;-81
2021/05/17 03:35:26;;;;;;;17.10;5.83;;;;;;;16.79;84.21;98549.66;1696306;82;21142;-81
2021/05/17 03:38:33;;;;;;;16.97;5.45;;;;;;;16.89;83.76;98566.88;1721288;82;21276;-81
2021/05/17 03:41:38;;;;;;;12.70;5.37;;;;;;;16.97;83.55;98586.59;1741229;81;21248;-81
2021/05/17 03:44:43;;;;;;;14.10;4.92;;;;;;;17.04;83.50;98602.98;1743113;81;21804;-81
2021/05/17 03:47:50;;;;;;;18.90;4.97;;;;;;;17.07;82.99;98618.45;1749612;81;21850;-81
2021/05/17 03:50:55;;;;;;;15.48;4.40;;;;;;;17.07;82.86;98590.84;1747651;81;21269;-81
2021/05/17 03:54:00;;;;;;;15.75;5.12;;;;;;;17.05;82.95;98579.23;1738835;81;21267;-81
2021/05/17 03:57:07;;;;;;;19.05;5.85;;;;;;;17.05;83.25;98573.70;1749347;81;21283;-82
2021/05/17 04:00:14;;;;;;;21.50;4.87;;;;;;;17.02;83.27;98530.58;1685628;85;21808;-82
2021/05/17 04:03:21;;;;;;;19.87;5.42;;;;;;;17.03;83.15;98505.48;1757648;81;21291;-82
2021/05/17 04:16:20;;;;;;;31.27;6.62;;;;;;;17.28;82.36;98544.09;1758474;81;21277;-82
2021/05/17 04:19:27;;;;;;;41.08;8.13;;;;;;;17.41;81.60;98551.09;1760468;81;21698;-82
2021/05/17 04:22:33;;;;;;;41.35;6.90;;;;;;;17.60;81.13;98542.16;1685329;85;21333;-82
2021/05/17 04:25:38;;;;;;;41.85;7.83;;;;;;;17.95;80.59;98557.34;1756861;81;21309;-82
2021/05/17 04:28:45;;;;;;;36.48;6.83;;;;;;;18.33;79.44;98552.58;1760636;81;21181;-82
2021/05/17 04:31:49;;;;;;;38.00;8.03;;;;;;;18.71;77.94;98554.15;1758304;79;21276;-83
2021/05/17 04:34:55;;;;;;;45.98;7.95;;;;;;;19.11;77.12;98550.66;1775428;80;21698;-83
2021/05/17 04:38:01;;;;;;;47.55;7.70;;;;;;;19.55;75.51;98554.30;1763081;80;21261;-82
2021/05/17 04:41:06;;;;;;;47.75;8.53;;;;;;;19.97;73.44;98569.00;1759209;80;21626;-84
2021/05/17 04:44:11;;;;;;;50.65;8.60;;;;;;;20.30;71.92;98587.80;1761443;80;21244;-84
2021/05/17 04:47:16;;;;;;;57.05;10.18;;;;;;;20.60;69.92;98608.28;1755578;80;21854;-83
2021/05/17 04:50:23;;;;;;;69.27;10.13;;;;;;;20.79;69.24;98613.48;1770611;80;21302;-82
2021/05/17 04:53:28;;;;;;;78.30;11.48;;;;;;;20.99;68.64;98629.27;1778392;80;21181;-84
2021/05/17 04:56:34;;;;;;;90.87;12.55;;;;;;;21.25;68.01;98640.23;1773190;80;21314;-84
2021/05/17 04:59:39;;;;;;;121.33;16.15;;;;;;;21.43;66.06;98650.73;1781880;80;21730;-83
2021/05/17 05:02:45;;;;;;;90.83;13.43;;;;;;;21.48;64.82;98652.09;1783618;80;21901;-82
2021/05/17 05:05:50;;;;;;;77.17;12.20;;;;;;;21.57;64.64;98654.54;1780978;79;21786;-82
2021/05/17 05:08:59;;;;;;;130.30;17.10;;;;;;;21.64;64.08;98674.53;1780384;80;21276;-83
2021/05/17 05:12:05;;;;;;;95.22;14.90;;;;;;;21.65;63.17;98661.45;1774886;79;21157;-84
2021/05/17 05:15:14;;;;;;;100.30;15.63;;;;;;;21.66;63.50;98678.41;1781995;79;21723;-84
2021/05/17 05:18:19;;;;;;;110.03;14.60;;;;;;;21.64;64.65;98665.33;1779889;79;21694;-85
2021/05/17 05:21:26;;;;;;;100.30;12.82;;;;;;;21.68;64.39;98650.55;1771880;79;21999;-85
2021/05/17 05:24:32;;;;;;;114.60;15.45;;;;;;;21.71;64.48;98649.72;1754137;80;21491;-85
2021/05/17 05:33:59;;;;;;;126.60;20.05;;;;;;;21.81;64.92;98674.13;1770768;79;21771;-84
2021/05/17 05:37:06;;;;;;;114.65;19.50;;;;;;;21.88;63.40;98673.81;1771733;79;21157;-83
2021/05/17 05:40:12;;;;;;;144.02;18.65;;;;;;;21.83;62.79;98671.90;1771334;79;21270;-83
2021/05/17 05:43:18;;;;;;;130.67;22.00;;;;;;;21.82;64.06;98677.73;1776273;79;21366;-84
2021/05/17 05:46:30;;;;;;;122.37;20.80;;;;;;;21.82;63.82;98681.34;1774106;79;21641;-84
2021/05/17 05:49:35;;;;;;;106.00;19.70;;;;;;;21.86;63.59;98698.30;1726479;80;21213;-83
2021/05/17 05:52:45;;;;;;;142.55;21.82;;;;;;;21.93;64.14;98704.39;1757905;79;21303;-82
2021/05/17 05:55:51;;;;;;;151.57;24.35;;;;;;;22.01;64.34;98692.61;1747156;79;21308;-85
2021/05/17 05:59:02;;;;;;;153.65;27.10;;;;;;;22.09;64.63;98702.31;1761145;79;21323;-86
2021/05/17 06:02:09;;;;;;;163.03;28.55;;;;;;;22.19;65.36;98711.43;1754892;79;21293;-83
2021/05/17 06:05:16;;;;;;;146.00;25.75;;;;;;;22.24;63.58;98718.09;1762119;79;21296;-82
2021/05/17 06:08:27;;;;;;;174.23;29.92;;;;;;;22.20;63.42;98717.27;1745186;80;21212;-87
2021/05/17 06:11:35;;;;;;;131.63;22.55;;;;;;;22.22;64.25;98714.77;1758307;79;21366;-86
2021/05/17 06:14:46;;;;;;;111.72;17.98;;;;;;;22.19;64.71;98701.69;1757468;79;21689;-86
2021/05/17 06:17:57;;;;;;;119.50;18.75;;;;;;;22.27;64.08;98699.41;1757743;79;21173;-86
2021/05/17 06:21:07;;;;;;;121.57;17.23;;;;;;;22.45;64.68;98709.27;1757774;79;21219;-87
2021/05/17 06:24:19;;;;;;;97.50;16.23;;;;;;;22.74;64.32;98718.75;1746062;80;21291;-86
2021/05/17 06:27:28;;;;;;;138.18;17.90;;;;;;;22.84;63.40;98726.43;1748097;80;22099;-88
2021/05/17 06:30:53;;;;;;;106.75;16.65;;;;;;;22.76;62.93;98729.02;1756012;79;21256;-86
2021/05/17 06:33:57;;;;;;;92.92;15.58;;;;;;;22.86;64.38;98729.73;1741441;80;21156;-86
2021/05/17 06:37:04;;;;;;;131.30;16.05;;;;;;;23.07;63.11;98729.00;1740936;80;21816;-86
2021/05/17 06:40:14;;;;;;;90.12;15.08;;;;;;;23.01;62.00;98728.80;1755978;79;21889;-85
2021/05/17 06:43:26;;;;;;;74.77;13.18;;;;;;;22.90;62.99;98723.88;1756878;79;21227;-86
2021/05/17 06:46:40;;;;;;;99.20;15.68;;;;;;;22.84;62.68;98729.22;1763481;80;21322;-86
2021/05/17 06:49:46;;;;;;;95.87;13.83;;;;;;;22.66;62.87;98736.36;1745489;80;21973;-86
2021/05/17 06:52:52;;;;;;;87.65;13.90;;;;;;;22.53;63.87;98735.64;1759136;79;21299;-88
2021/05/17 06:56:07;;;;;;;125.00;16.93;;;;;;;22.56;64.35;98743.42;1757624;79;21145;-85
2021/05/17 06:59:26;;;;;;;81.30;15.68;;;;;;;22.76;65.03;98731.81;1757703;79;21705;-84
2021/05/17 07:02:32;;;;;;;107.63;19.73;;;;;;;23.06;64.90;98734.31;1761779;79;21882;-85
2021/05/17 07:05:50;;;;;;;74.17;12.85;;;;;;;23.33;64.78;98730.07;1753854;79;21296;-85
2021/05/17 07:12:27;;;;;;;101.60;23.55;;;;;;;24.02;63.90;98738.92;1758875;79;21699;-85
2021/05/17 07:15:35;;;;;;;71.85;14.50;;;;;;;24.16;63.84;98742.04;1755316;79;21794;-85
2021/05/17 07:18:45;;;;;;;66.22;15.08;;;;;;;24.36;63.21;98735.31;1755605;79;21206;-86
2021/05/17 07:25:28;;;;;;;41.77;11.55;;;;;;;24.84;62.26;98735.59;1759733;80;21964;-84
2021/05/17 07:28:38;;;;;;;51.73;13.78;;;;;;;25.09;60.99;98740.75;1755841;79;21209;-85
2021/05/17 07:31:49;;;;;;;77.92;20.27;;;;;;;25.12;58.41;98740.68;1756864;79;21724;-84
2021/05/17 07:35:01;;;;;;;36.93;10.48;;;;;;;24.91;58.21;98736.86;1754690;79;21178;-84
2021/05/17 07:38:08;;;;;;;43.38;10.10;;;;;;;24.80;58.66;98735.41;1756737;79;21189;-88
2021/05/17 07:41:17;;;;;;;28.25;9.13;;;;;;;24.86;59.94;98738.92;1757528;80;21326;-86
2021/05/17 07:44:25;;;;;;;39.18;8.68;;;;;;;25.05;60.32;98745.84;1756544;79;21295;-88
2021/05/17 07:47:33;;;;;;;31.40;8.83;;;;;;;25.30;58.71;98746.75;1759054;79;21646;-87
2021/05/17 07:50:49;;;;;;;36.17;9.55;;;;;;;25.48;59.11;98747.78;1756774;79;21333;-85
2021/05/17 07:53:59;;;;;;;37.50;9.10;;;;;;;25.58;58.31;98736.94;1770472;79;21177;-84
2021/05/17 07:57:06;;;;;;;37.50;8.13;;;;;;;25.71;58.13;98751.49;1770304;79;21326;-86
2021/05/17 08:00:18;;;;;;;27.98;8.23;;;;;;;25.67;57.12;98742.88;1734337;81;21829;-86
2021/05/17 08:03:30;;;;;;;21.45;7.20;;;;;;;25.60;57.65;98733.27;1703176;82;21207;-87
2021/05/17 08:06:43;;;;;;;24.67;7.37;;;;;;;25.55;58.13;98732.81;1708307;83;21367;-89
2021/05/17 08:09:45;;;;;;;22.55;7.47;;;;;;;25.56;58.59;98741.45;1733450;80;21358;-85
2021/05/17 08:12:54;;;;;;;32.67;8.48;;;;;;;25.58;57.36;98730.77;1735040;80;21320;-87
2021/05/17 08:16:03;;;;;;;29.75;7.28;;;;;;;25.54;58.07;98737.30;1730744;81;21492;-86
2021/05/17 08:19:12;;;;;;;31.83;7.57;;;;;;;25.59;57.98;98738.02;1711858;83;21861;-84
2021/05/17 08:22:20;;;;;;;26.82;7.65;;;;;;;25.76;58.13;98737.41;1707943;83;21716;-86
2021/05/17 08:25:25;;;;;;;21.68;5.67;;;;;;;25.83;57.39;98742.56;1733095;80;21164;-85
2021/05/17 08:28:32;;;;;;;21.50;7.20;;;;;;;25.80;58.09;98741.24;1701258;82;22222;-85
2021/05/17 08:31:42;;;;;;;20.90;6.15;;;;;;;25.89;57.21;98742.73;1709297;83;21790;-86
2021/05/17 08:34:48;;;;;;;22.10;5.92;;;;;;;25.90;55.96;98737.38;1727430;81;21205;-85
2021/05/17 08:37:54;;;;;;;27.10;5.92;;;;;;;25.79;57.29;98735.97;1734607;82;21286;-85
2021/05/17 08:41:01;;;;;;;17.67;4.95;;;;;;;25.82;57.99;98745.12;1737236;80;21305;-85
2021/05/17 08:44:07;;;;;;;18.87;6.78;;;;;;;25.93;57.81;98756.36;1712042;82;21586;-86
2021/05/17 08:47:12;;;;;;;24.23;5.78;;;;;;;25.93;57.36;98752.98;1709959;83;21179;-86
2021/05/17 08:50:19;;;;;;;33.18;6.20;;;;;;;25.95;57.86;98745.08;1694179;83;21200;-84
2021/05/17 08:53:26;;;;;;;31.48;6.45;;;;;;;25.83;57.39;98759.37;1719361;81;21526;-84
2021/05/17 08:56:33;;;;;;;22.73;6.25;;;;;;;25.70;58.17;98760.47;1706304;82;21145;-85
2021/05/17 08:59:40;;;;;;;20.50;5.60;;;;;;;25.68;58.51;98762.73;1717892;81;21818;-87
2021/05/17 09:02:48;;;;;;;28.30;6.60;;;;;;;25.68;59.28;98754.91;1717698;81;21181;-84
2021/05/17 09:05:58;;;;;;;22.82;5.92;;;;;;;25.71;58.04;98766.89;1715061;82;21590;-84
2021/05/17 09:09:33;;;;;;;18.52;4.83;;;;;;;25.65;57.50;98761.16;1716779;82;21860;-85
2021/05/17 09:12:40;;;;;;;20.60;5.85;;;;;;;25.56;58.80;98760.23;1631384;85;21221;-85
2021/05/17 09:15:48;;;;;;;19.87;5.08;;;;;;;25.38;58.81;98757.22;1691494;84;21196;-87
2021/05/17 09:18:55;;;;;;;22.13;6.05;;;;;;;25.24;59.37;98758.63;1754598;79;21980;-86
2021/05/17 09:22:23;;;;;;;28.40;7.10;;;;;;;25.21;59.44;98759.23;1665495;83;21345;-86
2021/05/17 09:25:28;;;;;;;29.90;7.10;;;;;;;25.11;59.15;98765.61;1687852;83;21283;-85
2021/05/17 09:28:44;;;;;;;21.23;5.62;;;;;;;24.94;59.83;98775.41;1685896;83;21204;-85
2021/05/17 09:31:52;;;;;;;24.12;6.40;;;;;;;24.84;60.17;98774.73;1686937;83;21462;-84
2021/05/17 09:35:17;;;;;;;28.40;5.20;;;;;;;24.81;60.69;98780.39;1747995;79;21551;-84
2021/05/17 09:38:32;;;;;;;18.40;5.90;;;;;;;24.83;61.60;98784.27;1761513;80;21323;-84
2021/05/17 09:41:56;;;;;;;21.52;5.22;;;;;;;24.91;61.63;98795.58;1758101;80;21676;-84
2021/05/17 09:45:05;;;;;;;25.05;5.60;;;;;;;25.10;61.70;98807.31;1750086;79;21442;-84
2021/05/17 09:48:22;;;;;;;18.55;5.05;;;;;;;25.21;60.58;98813.78;1732130;80;21265;-83
2021/05/17 09:51:30;;;;;;;19.32;5.05;;;;;;;25.26;59.75;98812.86;1739224;79;21307;-85
2021/05/17 09:54:57;;;;;;;23.73;4.83;;;;;;;25.37;60.17;98817.14;1757198;79;21330;-85
2021/05/17 09:58:04;;;;;;;20.30;4.97;;;;;;;25.50;59.24;98826.66;1751302;79;21315;-84
2021/05/17 10:01:29;;;;;;;18.42;4.47;;;;;;;25.70;59.40;98828.23;1757547;79;21220;-86
2021/05/17 10:04:37;;;;;;;21.27;4.37;;;;;;;25.79;58.23;98824.17;1759359;79;21788;-83
2021/05/17 10:07:44;;;;;;;12.00;3.95;;;;;;;25.86;58.35;98835.20;1760618;79;21204;-84
2021/05/17 10:10:51;;;;;;;13.38;4.00;;;;;;;25.95;58.07;98833.32;1756151;79;21801;-83
2021/05/17 10:13:58;;;;;;;10.35;4.00;;;;;;;26.11;56.80;98846.98;1757048;79;21276;-83
2021/05/17 10:17:08;;;;;;;15.43;4.05;;;;;;;26.30;56.69;98844.03;1754690;80;21243;-84
2021/05/17 10:20:18;;;;;;;10.20;3.90;;;;;;;26.49;54.93;98851.77;1726114;81;21322;-84
2021/05/17 10:23:27;;;;;;;11.15;3.80;;;;;;;26.60;54.78;98846.16;1720987;81;21199;-85
2021/05/17 10:26:46;;;;;;;11.20;3.98;;;;;;;26.71;54.62;98836.92;1700082;83;21216;-84
2021/05/17 10:29:52;;;;;;;16.25;3.47;;;;;;;26.76;53.93;98836.78;1754916;79;21161;-87
2021/05/17 10:33:07;;;;;;;17.95;3.50;;;;;;;26.85;54.13;98843.87;1744490;80;21788;-87
2021/05/17 10:36:14;;;;;;;16.32;3.62;;;;;;;26.95;53.96;98844.42;1753572;79;21904;-87
2021/05/17 10:39:27;;;;;;;14.33;3.10;;;;;;;26.98;52.23;98847.18;1758360;80;21295;-87
2021/05/17 10:42:39;;;;;;;9.08;3.60;;;;;;;27.03;52.57;98847.05;1743936;79;21327;-82
2021/05/17 10:48:56;;;;;;;11.10;3.37;;;;;;;26.86;52.08;98844.12;1751835;79;21206;-81
2021/05/17 10:52:15;;;;;;;9.73;3.02;;;;;;;26.77;51.78;98842.64;1748656;79;21300;-82
2021/05/17 10:55:25;;;;;;;72.62;18.80;;;;;;;26.63;52.08;98846.08;1757344;79;21795;-82
2021/05/17 11:02:20;;;;;;;36.45;8.00;;;;;;;26.38;52.80;98841.31;1760060;79;21758;-87
2021/05/17 11:05:30;;;;;;;32.88;5.95;;;;;;;26.30;52.54;98846.84;1766795;80;21956;-87
2021/05/17 11:08:39;;;;;;;66.22;16.32;;;;;;;26.26;52.55;98848.06;1763853;79;21746;-85
2021/05/17 11:11:49;;;;;;;109.00;25.20;;;;;;;26.40;53.05;98864.84;1759403;79;21169;-87
2021/05/17 11:15:23;;;;;;;24.72;6.75;;;;;;;26.53;52.17;98868.77;1762003;79;21209;-85
2021/05/17 11:18:47;;;;;;;41.92;8.95;;;;;;;26.55;52.63;98871.52;1761243;79;21271;-84
2021/05/17 11:22:00;;;;;;;148.15;34.35;;;;;;;26.73;51.76;98877.53;1769673;79;21559;-87
2021/05/17 11:25:07;;;;;;;12.98;5.15;;;;;;;26.93;51.77;98878.17;1771302;80;21284;-86
2021/05/17 11:28:12;;;;;;;10.00;4.47;;;;;;;26.96;50.75;98878.92;1699658;81;21541;-86
2021/05/17 11:31:34;;;;;;;11.30;3.87;;;;;;;26.83;49.84;98879.84;1679410;83;21583;-86
2021/05/17 11:34:36;;;;;;;14.98;4.50;;;;;;;26.67;49.53;98882.98;1700504;83;21185;-85
2021/05/17 11:37:42;;;;;;;8.25;4.45;;;;;;;26.60;50.07;98890.20;1702910;80;21196;-85
2021/05/17 11:40:55;;;;;;;11.12;4.85;;;;;;;26.56;49.07;98890.00;1699528;83;21169;-87
2021/05/17 11:44:13;;;;;;;10.23;4.65;;;;;;;26.59;49.56;98889.95;1724867;81;21322;-86
2021/05/17 11:47:29;;;;;;;14.33;6.00;;;;;;;26.60;49.98;98892.42;1700891;83;21220;-86
2021/05/17 11:50:33;;;;;;;12.47;4.60;;;;;;;26.63;50.67;98900.22;1725447;81;21745;-80
2021/05/17 11:53:39;;;;;;;7.08;3.77;;;;;;;26.54;50.32;98911.06;1702914;83;21674;-80
2021/05/17 11:56:55;;;;;;;49.55;12.45;;;;;;;26.41;50.78;98911.34;1702984;83;22382;-82
2021/05/17 12:00:03;;;;;;;54.75;12.20;;;;;;;26.40;50.24;98909.69;1749981;79;21468;-86
2021/05/17 12:03:07;;;;;;;13.75;4.47;;;;;;;26.40;49.77;98917.53;1745175;79;21833;-83
2021/05/17 12:06:15;;;;;;;37.80;10.78;;;;;;;26.32;50.15;98923.87;1757003;79;21153;-83
2021/05/17 12:09:49;;;;;;;115.10;26.27;;;;;;;26.25;49.05;98932.71;1754969;79;21189;-84
2021/05/17 12:12:56;;;;;;;8.75;3.12;;;;;;;26.21;48.63;98937.86;1764131;79;21797;-84
2021/05/17 12:16:02;;;;;;;4.22;1.40;;;;;;;26.15;49.43;98941.31;1765093;79;21172;-84
2021/05/17 12:19:09;;;;;;;2.17;1.05;;;;;;;26.07;50.10;98937.86;1744381;80;22007;-84
2021/05/17 12:22:36;;;;;;;2.22;0.85;;;;;;;26.08;49.58;98932.51;1741936;79;21158;-85
2021/05/17 12:25:39;;;;;;;1.40;0.72;;;;;;;26.12;49.19;98936.92;1761947;80;21173;-85
2021/05/17 12:28:49;;;;;;;10.88;1.52;;;;;;;26.11;49.07;98930.49;1707799;82;21168;-85
2021/05/17 12:31:56;;;;;;;2.42;1.20;;;;;;;26.10;49.76;98932.19;1723507;82;21267;-85
2021/05/17 12:35:07;;;;;;;3.12;1.00;;;;;;;26.00;49.44;98938.83;1769528;79;21291;-85
2021/05/17 12:38:22;;;;;;;2.08;1.20;;;;;;;25.89;49.84;98937.39;1759892;79;21302;-85
2021/05/17 12:41:47;;;;;;;1.37;1.00;;;;;;;25.85;50.20;98940.55;1752134;80;21295;-85
2021/05/17 12:44:52;;;;;;;4.33;1.30;;;;;;;25.82;49.96;98939.17;1739086;80;21261;-87
2021/05/17 12:47:58;;;;;;;3.72;1.30;;;;;;;25.74;50.40;98936.52;1721392;81;21347;-86
2021/05/17 12:51:10;;;;;;;4.28;1.02;;;;;;;25.73;50.27;98953.60;1764968;79;21836;-86
2021/05/17 12:54:22;;;;;;;1.72;0.93;;;;;;;25.67;50.45;98944.47;1752506;80;21130;-86
2021/05/17 12:57:27;;;;;;;1.85;0.80;;;;;;;25.61;50.94;98937.32;1760683;80;21864;-86
2021/05/17 13:00:51;;;;;;;3.92;1.20;;;;;;;25.66;51.03;98911.20;1761470;80;21264;-86
2021/05/17 13:04:02;;;;;;;2.17;1.00;;;;;;;25.70;50.44;98927.64;1767237;79;21168;-87
2021/05/17 13:07:10;;;;;;;2.95;0.82;;;;;;;25.72;49.76;98956.98;1768255;80;21323;-86
2021/05/17 13:10:17;;;;;;;2.65;0.80;;;;;;;25.75;49.63;98976.55;1747346;79;21282;-87
2021/05/17 13:13:25;;;;;;;5.08;0.90;;;;;;;25.79;49.60;98983.80;1727147;82;21284;-85
2021/05/17 13:16:47;;;;;;;8.93;1.22;;;;;;;25.75;49.81;98983.55;1761998;79;21660;-85
2021/05/17 13:19:59;;;;;;;3.85;1.10;;;;;;;25.68;50.37;98981.70;1759244;80;21687;-85
2021/05/17 13:30:15;;;;;;;16.42;1.67;;;;;;;25.57;50.38;98964.84;1744103;80;21767;-84
2021/05/17 13:33:51;;;;;;;1.22;0.60;;;;;;;25.58;49.07;98958.92;1731189;80;21685;-85
2021/05/17 13:36:57;;;;;;;1.75;0.90;;;;;;;25.51;47.98;98966.08;1755350;81;21173;-85
2021/05/17 13:40:02;;;;;;;3.80;0.90;;;;;;;25.39;48.31;98963.75;1744472;81;21838;-84
2021/05/17 13:43:07;;;;;;;1.22;0.80;;;;;;;25.34;48.50;98959.64;1758607;81;21276;-85
2021/05/17 13:46:15;;;;;;;4.55;0.88;;;;;;;25.22;49.34;98965.16;1753198;80;21816;-85
2021/05/17 13:49:21;;;;;;;6.17;1.00;;;;;;;25.05;49.27;98980.80;1740488;81;21157;-87
2021/05/17 13:52:26;;;;;;;2.05;1.00;;;;;;;24.89;49.73;98977.39;1756075;80;21335;-88
2021/05/17 13:55:34;;;;;;;2.98;0.98;;;;;;;24.78;50.03;98970.30;1750494;81;21138;-88
2021/05/17 13:58:40;;;;;;;5.30;1.17;;;;;;;24.66;50.77;98967.97;1749391;80;21445;-86
2021/05/17 14:01:47;;;;;;;1.55;0.93;;;;;;;24.53;51.19;98966.73;1765756;80;21287;-88
2021/05/17 14:04:53;;;;;;;2.50;0.90;;;;;;;24.36;50.97;98960.78;1771299;80;21196;-87
2021/05/17 14:07:58;;;;;;;0.93;0.80;;;;;;;24.19;51.46;98956.54;1763736;80;21286;-88
2021/05/17 14:11:04;;;;;;;1.75;0.72;;;;;;;24.17;52.16;98953.20;1753982;82;21303;-88
2021/05/17 14:14:10;;;;;;;2.70;0.95;;;;;;;24.18;51.86;98956.28;1752596;82;21200;-88
2021/05/17 14:17:16;;;;;;;6.72;1.20;;;;;;;24.17;52.37;98951.80;1754352;82;21322;-88
2021/05/17 14:20:25;;;;;;;3.35;1.00;;;;;;;24.15;52.28;98951.28;1754325;82;21303;-89
2021/05/17 14:23:30;;;;;;;2.08;1.15;;;;;;;24.16;51.77;98957.13;1753739;82;21339;-88
2021/05/17 14:26:37;;;;;;;3.45;1.32;;;;;;;24.16;52.66;98949.31;1754443;82;21341;-88
2021/05/17 14:29:44;;;;;;;4.67;1.30;;;;;;;24.11;52.79;98951.60;1754211;80;21151;-88
2021/05/17 14:32:50;;;;;;;8.15;1.30;;;;;;;24.12;52.61;98957.45;1754347;82;21183;-88
2021/05/17 14:35:57;;;;;;;2.72;1.05;;;;;;;24.16;52.18;98952.94;1718605;83;21174;-88
2021/05/17 14:39:04;;;;;;;4.25;1.22;;;;;;;24.20;51.75;98950.38;1718747;83;21314;-88
2021/05/17 14:42:12;;;;;;;2.42;0.90;;;;;;;24.17;51.49;98946.78;1689304;85;21299;-88
2021/05/17 14:45:19;;;;;;;2.90;0.95;;;;;;;24.11;51.77;98955.80;1701710;83;21162;-88
2021/05/17 14:48:25;;;;;;;1.95;1.00;;;;;;;24.02;52.40;98962.34;1701973;84;21205;-88
2021/05/17 14:51:31;;;;;;;3.60;1.27;;;;;;;23.94;52.61;98961.02;1703341;83;21233;-88
2021/05/17 14:54:36;;;;;;;1.98;1.07;;;;;;;23.90;53.18;98961.34;1719058;83;21294;-88
2021/05/17 14:57:42;;;;;;;2.80;1.20;;;;;;;23.87;52.92;98964.75;1719042;83;21860;-87
2021/05/17 15:00:47;;;;;;;7.50;1.70;;;;;;;23.87;53.25;98966.97;1716967;82;21199;-88
2021/05/17 15:03:53;;;;;;;2.02;0.95;;;;;;;23.84;53.44;98968.95;1715613;83;21286;-88
2021/05/17 15:06:59;;;;;;;2.17;1.02;;;;;;;23.79;53.37;98966.78;1715855;83;21314;-88
2021/05/17 15:10:05;;;;;;;2.45;1.00;;;;;;;23.70;53.30;98963.80;1715653;83;21844;-87
2021/05/17 15:13:11;;;;;;;5.15;1.15;;;;;;;23.60;53.29;98961.08;1715204;83;21337;-88